• pl
  • eng

Awiacja
WIADOMOŚCI
ostatnia aktualizacja: 11.01.2019 18:40
Szanowni Państwo,

uprzejmie informujemy, że z dniem 01.01.2019 roku z obszaru MOLC zostanie wyłączone BPM we Wrocławiu. Jego zadania zostaną przejęte przez BPM w Krakowie.

Kliknij na pogrubioną czerwoną nazwę, aby odkodować depeszę. 08:31 23.01.2019
  • WIND
  • SIGNIFICANT EURO
  • SIGNIFICANT
  • SIGMET
  • AIRMET
  • TAF FC
  • TAF FT
  • METAR GG30
  • METAR GG00


METAR EPBY 230730Z 12005KT 3000 BR BKN022 M08/M10 Q1009 =

METAR EPGD 230730Z 11007KT 040V130 2500 BR NSC M10/M11 Q1010 =

METAR EPKK 230730Z 07007KT 6000 SCT006 OVC009 M05/M06 Q1005 =

METAR EPKT 230730Z 09009KT 9000 OVC007 M05/M07 Q1005 =

METAR EPLB 230730Z 10008KT 9999 OVC014 M05/M06 Q1008 =

METAR EPLL 230730Z 10008KT 070V150 9999 OVC012 M04/M07 Q1007 =

METAR EPMO 230730Z 08009KT 5000 -SN BR OVC028 M06/M08 Q1009 =

METAR EPPO 230730Z 13014KT 9999 OVC013 M06/M09 Q1007 =

METAR EPRA 230730Z 10010KT 9999 BKN016 M04/M06 Q1008=

METAR EPRZ 230730Z 07011KT 9999 BKN011 OVC016 M06/M08 Q1006 =

METAR EPSC 230730Z 12010KT 5000 BR NSC M07/M09 Q1007 =

METAR EPSY 230730Z 07004KT 030V100 5000 BR NSC M10/M11 Q1011=

METAR EPWA 230730Z 09009KT 9999 BKN032 M04/M07 Q1009 NOSIG=

METAR EPWR 230730Z 13013KT 4000 BR BKN004 M08/M09 Q1006 =

METAR EPZG 230730Z 09006KT 050V120 1700 BR OVC005 M07/M08 Q1007 =
Awiacja.imgw.pl jest pogodowym serwisem informacyjnym
Instytutu Meteorologii i Gospodarki Wodnej Państwowego Instytutu Badawczego.
Copyright IMGW PIB 2009-2011© Wszelkie prawa zastrzeżone.